Latest Weather Observations for Dalby

IDQ60801

Issued at 12:42 pm EST Thursday 1 October 2020 (issued every 10 minutes, with the page automatically refreshed every 10 minutes)

About weather observations | Map of weather stations | Latest weather observations for QLD | Other Formats
Station Details ID: 041522 Name: DALBY AIRPORT Lat: -27.16 Lon: 151.26 Height: 343.9 m
Data from the previous 72 hours. | See also: Recent months at Dalby
Date/Time
EST
Temp
°C
App
Temp
°C
Dew
Point
°C
Rel
Hum
%
Delta-T
°C
Wind Press
QNH
hPa
Press
MSL
hPa
Rain since
9am
mm
Dir  Spd
km/h
Gust
km/h
Spd
kts
Gust
kts
01/12:30pm 26.7 22.7 8.2 31 10.1 W 19 26 10 14 1018.3 1017.0 0.0
01/12:00pm 26.2 21.6 8.2 32 9.8 WNW 22 37 12 20 1018.9 1017.6 0.0
01/11:30am 25.6 22.2 9.0 35 9.2 NW 17 30 9 16 1019.1 1017.8 0.0
01/11:00am 24.6 20.6 9.0 37 8.6 NW 20 30 11 16 1019.6 1018.3 0.0
01/10:30am 24.4 19.9 9.9 40 8.1 NNW 24 41 13 22 1019.9 1018.6 0.0
01/10:00am 23.2 18.1 9.2 41 7.6 NNW 26 35 14 19 1020.1 1018.8 0.0
01/09:30am 22.3 16.6 9.8 45 6.9 NNW 30 41 16 22 1020.2 1019.4 0.0
01/09:00am 21.0 15.1 10.5 51 5.8 NNW 32 43 17 23 1020.3 1019.5 0.4
01/08:30am 19.9 13.9 10.9 56 5.0 NNW 33 44 18 24 1020.2 1019.4 0.4
01/08:00am 19.1 13.8 11.2 60 4.4 NNW 30 39 16 21 1020.3 1019.5 0.4
01/07:30am 17.6 14.6 10.7 64 3.8 N 17 26 9 14 1020.2 1019.4 0.4
01/07:00am 15.4 13.6 10.8 74 2.5 NNW 11 17 6 9 1020.0 1019.2 0.4
01/06:30am 14.1 12.8 9.9 76 2.2 NW 7 9 4 5 1019.9 1019.1 0.4
01/06:00am 12.1 9.8 8.9 81 1.6 NNW 11 13 6 7 1019.5 1018.7 0.4
01/05:30am 12.0 9.2 8.7 80 1.7 NNW 13 17 7 9 1018.7 1017.9 0.4
01/05:00am 12.1 10.4 8.4 78 1.9 WNW 7 9 4 5 1018.3 1017.4 0.4
01/04:30am 12.8 10.4 8.7 76 2.1 NNW 11 13 6 7 1018.0 1017.1 0.4
01/04:00am 14.0 11.1 9.8 76 2.2 N 15 20 8 11 1017.4 1016.6 0.4
01/03:30am 12.9 10.3 9.5 80 1.8 N 13 15 7 8 1017.3 1016.5 0.4
01/03:00am 12.4 9.7 8.9 79 1.8 N 13 17 7 9 1017.6 1016.8 0.4
01/02:30am 10.9 8.4 8.0 82 1.4 NNW 11 11 6 6 1018.0 1017.1 0.4
01/02:00am 11.7 9.2 8.2 79 1.7 NW 11 11 6 6 1018.3 1017.4 0.4
01/01:30am 12.5 10.6 9.0 79 1.8 WNW 9 13 5 7 1018.9 1018.1 0.4
01/01:00am 12.0 9.5 8.1 77 1.9 NW 11 15 6 8 1018.9 1018.1 0.4
01/12:30am 13.7 10.1 8.5 71 2.7 N 17 22 9 12 1018.6 1017.8 0.4
01/12:00am 13.5 10.0 8.8 73 2.4 N 17 20 9 11 1018.6 1017.8 0.4
 
Date/Time
EST
Temp
°C
App
Temp
°C
Dew
Point
°C
Rel
Hum
%
Delta-T
°C
Wind Press
QNH
hPa
Press
MSL
hPa
Rain since
9am
mm
Dir  Spd
km/h
Gust
km/h
Spd
kts
Gust
kts
30/11:30pm 13.2 10.6 9.5 78 1.9 NNE 13 17 7 9 1018.8 1018.0 0.4
30/11:00pm 12.2 8.7 8.9 80 1.7 NE 17 20 9 11 1018.7 1017.9 0.4
30/10:30pm 12.0 8.5 8.8 81 1.6 NNE 17 17 9 9 1019.2 1018.4 0.4
30/10:00pm 12.2 9.2 9.4 83 1.4 NE 15 15 8 8 1019.3 1018.5 0.4
30/09:30pm 12.1 9.5 9.5 84 1.3 ENE 13 17 7 9 1019.4 1018.6 0.4
30/09:00pm 12.8 11.4 9.4 80 1.8 E 7 9 4 5 1019.5 1018.7 0.4
30/08:30pm 13.6 11.2 10.2 80 1.8 E 13 15 7 8 1019.2 1018.4 0.4
30/08:00pm 14.7 12.2 10.9 78 2.0 ESE 15 17 8 9 1018.9 1018.1 0.4
30/07:30pm 15.1 13.8 11.3 78 2.1 SE 9 13 5 7 1018.9 1018.1 0.4
30/07:00pm 15.7 13.9 10.9 73 2.6 S 11 13 6 7 1019.1 1018.3 0.4
30/06:30pm 16.0 13.6 11.4 74 2.5 SW 15 20 8 11 1019.5 1018.7 0.4
30/06:00pm 17.6 12.8 8.7 56 4.7 SW 24 48 13 26 1019.2 1018.4 0.0
30/05:30pm 21.2 18.2 4.3 33 8.3 E 9 13 5 7 1017.9 1017.0 0.0
30/05:00pm 21.7 17.6 4.3 32 8.6 ENE 15 20 8 11 1017.3 1016.5 0.0
30/04:30pm 22.6 18.6 5.1 32 8.9 ENE 15 24 8 13 1017.0 1016.2 0.0
30/04:00pm 22.3 17.7 3.9 30 9.1 NE 17 20 9 11 1017.1 1016.3 0.0
30/03:30pm 22.2 19.0 5.2 33 8.6 NE 11 20 6 11 1016.9 1016.1 0.0
30/03:00pm 21.1 18.5 5.9 37 7.7 NNE 9 15 5 8 1017.1 1016.3 0.0
30/02:30pm 20.6 16.6 6.5 40 7.2 NW 17 22 9 12 1018.1 1017.2 0.0
30/02:00pm 20.9 16.0 5.3 36 7.8 WNW 20 28 11 15 1018.8 1018.0 0.0
30/01:30pm 21.7 18.3 3.9 31 8.8 NW 11 17 6 9 1019.2 1018.4 0.0
30/01:00pm 21.5 17.7 3.7 31 8.7 NW 13 20 7 11 1019.6 1018.8 0.0
30/12:30pm 21.4 18.4 4.0 32 8.6 SSW 9 11 5 6 1019.9 1019.1 0.0
30/12:00pm 21.7 18.5 2.9 29 9.0 SE 9 17 5 9 1020.3 1019.5 0.0
30/11:30am 22.4 19.1 4.5 31 8.9 SW 11 19 6 10 1020.7 1019.9 0.0
30/11:00am 21.8 18.7 3.5 30 8.9 S 9 15 5 8 1020.8 1020.0 0.0
30/10:30am 20.8 17.8 4.0 33 8.2 NNE 9 17 5 9 1020.8 1020.0 0.0
30/10:00am 20.3 16.9 3.9 34 8.0 NE 11 19 6 10 1021.0 1020.2 0.0
30/09:30am 19.3 15.9 3.9 36 7.4 ENE 11 19 6 10 1021.6 1020.8 0.0
30/09:00am 19.1 16.2 4.5 38 7.1 NNE 9 22 5 12 1022.0 1021.2 0.0
30/08:30am 17.3 14.8 4.9 44 6.0 NW 7 13 4 7 1022.4 1021.6 0.0
30/08:00am 16.5 13.2 4.5 45 5.7 W 11 15 6 8 1022.7 1021.9 0.0
30/07:30am 15.9 13.0 4.9 48 5.3 NNW 9 13 5 7 1022.4 1021.6 0.0
30/07:00am 14.5 12.3 6.3 58 4.0 E 7 9 4 5 1021.8 1021.0 0.0
30/06:30am 12.1 9.1 6.2 67 2.8 E 11 13 6 7 1020.7 1019.9 0.0
30/06:00am 11.6 9.6 6.1 69 2.6 ENE 6 9 3 5 1021.0 1020.2 0.0
30/05:30am 10.8 7.7 5.6 70 2.4 E 11 13 6 7 1020.3 1019.5 0.0
30/05:00am 10.2 6.6 5.0 70 2.4 ESE 13 15 7 8 1020.5 1019.7 0.0
30/04:30am 11.2 7.3 5.5 68 2.7 ESE 15 17 8 9 1020.3 1019.5 0.0
30/04:00am 10.6 6.7 5.4 70 2.4 ESE 15 19 8 10 1020.1 1019.3 0.0
30/03:30am 11.3 9.0 5.6 68 2.7 ESE 7 11 4 6 1020.4 1019.6 0.0
30/03:00am 11.1 7.5 5.2 67 2.7 ESE 13 17 7 9 1020.2 1019.4 0.0
30/02:30am 11.8 9.2 6.1 68 2.7 E 9 20 5 11 1020.5 1019.7 0.0
30/02:00am 12.1 9.8 5.5 64 3.1 ENE 7 9 4 5 1020.6 1019.8 0.0
30/01:30am 12.1 9.7 5.3 63 3.2 NE 7 9 4 5 1020.6 1019.8 0.0
30/01:00am 12.5 8.5 5.0 60 3.5 ENE 15 20 8 11 1021.4 1020.6 0.0
30/12:30am 12.5 8.5 5.0 60 3.5 E 15 20 8 11 1021.6 1020.8 0.0
30/12:00am 12.3 8.6 4.5 59 3.6 E 13 15 7 8 1022.2 1021.4 0.0
 
Date/Time
EST
Temp
°C
App
Temp
°C
Dew
Point
°C
Rel
Hum
%
Delta-T
°C
Wind Press
QNH
hPa
Press
MSL
hPa
Rain since
9am
mm
Dir  Spd
km/h
Gust
km/h
Spd
kts
Gust
kts
29/11:30pm 13.2 9.2 4.9 57 3.9 ENE 15 20 8 11 1022.3 1021.5 0.0
29/11:00pm 14.1 9.5 5.5 56 4.1 ENE 19 26 10 14 1022.5 1021.7 0.0
29/10:30pm 14.5 9.7 5.8 56 4.2 ENE 20 28 11 15 1022.6 1021.8 0.0
29/10:00pm 14.8 9.7 6.1 56 4.2 ENE 22 28 12 15 1022.7 1021.9 0.0
29/09:30pm 15.4 10.0 6.2 54 4.5 ENE 24 33 13 18 1022.6 1021.8 0.0
29/09:00pm 15.9 10.4 6.1 52 4.8 ENE 24 32 13 17 1022.5 1021.7 0.0
29/08:30pm 16.5 10.2 5.8 49 5.3 ENE 28 37 15 20 1022.2 1021.4 0.0
29/08:00pm 17.5 11.1 5.1 44 6.0 ENE 28 39 15 21 1021.8 1021.0 0.0
29/07:30pm 18.7 12.2 4.8 40 6.8 ENE 28 44 15 24 1021.3 1020.5 0.0
29/07:00pm 19.2 13.8 4.6 38 7.1 ENE 22 30 12 16 1020.8 1020.0 0.0
29/06:30pm 19.0 13.9 3.2 35 7.5 E 19 22 10 12 1020.3 1019.5 0.0
29/06:00pm 20.6 14.5 2.9 31 8.4 E 24 33 13 18 1019.9 1019.1 0.0
29/05:30pm 22.4 16.5 1.4 25 9.9 E 22 26 12 14 1019.5 1018.7 0.0
29/05:00pm 23.5 18.0 0.6 22 10.7 E 19 24 10 13 1019.4 1018.6 0.0
29/04:30pm 24.0 18.5 0.4 21 11.0 ESE 19 26 10 14 1019.2 1018.4 0.0
29/04:00pm 24.4 19.8 1.3 22 11.0 ESE 15 28 8 15 1019.0 1018.2 0.0
29/03:30pm 23.8 20.3 1.4 23 10.7 S 9 13 5 7 1019.3 1018.5 0.0
29/03:00pm 24.8 20.6 1.7 22 11.1 E 13 24 7 13 1019.3 1018.5 0.0
29/02:30pm 24.3 20.1 1.9 23 10.8 ESE 13 26 7 14 1019.7 1018.9 0.0
29/02:00pm 24.8 19.9 2.3 23 10.9 ESE 17 28 9 15 1020.2 1019.4 0.0
29/01:30pm 23.5 19.0 2.4 25 10.2 ESE 15 26 8 14 1020.8 1020.0 0.0
29/01:00pm 24.1 20.5 2.9 25 10.4 NNW 11 26 6 14 1021.4 1020.6 0.0
29/12:30pm 23.5 19.7 4.0 28 9.7 ENE 13 28 7 15 1021.9 1021.1 0.0
29/12:00pm 23.2 19.1 4.2 29 9.5 ENE 15 28 8 15 1022.5 1021.7 0.0
29/11:30am 22.7 17.8 5.2 32 8.9 ENE 20 28 11 15 1023.0 1022.2 0.0
29/11:00am 22.5 17.7 5.4 33 8.7 ENE 20 35 11 19 1023.6 1022.9 0.0
29/10:30am 21.5 16.4 5.8 36 8.0 ENE 22 35 12 19 1024.3 1023.5 0.0
29/10:00am 21.5 16.6 7.0 39 7.5 ENE 22 35 12 19 1024.6 1023.8 0.0
29/09:30am 19.9 14.7 7.3 44 6.5 ENE 24 32 13 17 1025.0 1024.2 0.0
29/09:00am 19.0 13.7 8.4 50 5.6 ENE 26 39 14 21 1025.1 1024.3 -
29/08:30am 18.4 12.0 8.7 53 5.1 E 32 41 17 22 1025.2 1024.4 -
29/08:00am 17.0 11.8 8.7 58 4.3 E 26 35 14 19 1025.1 1024.3 -
29/07:30am 15.4 10.9 8.6 64 3.5 E 22 30 12 16 1024.7 1023.9 -
29/07:00am 14.4 9.9 8.6 68 3.0 E 22 28 12 15 1024.1 1023.3 -
29/06:30am 12.5 8.5 8.2 75 2.2 ESE 19 24 10 13 1023.8 1023.1 -
29/06:00am 10.9 7.5 7.6 80 1.6 ESE 15 19 8 10 1023.4 1022.6 -
29/05:30am 10.2 6.7 7.4 83 1.4 ESE 15 17 8 9 1023.0 1022.2 -
29/05:00am 10.1 6.6 7.0 81 1.5 ESE 15 17 8 9 1022.7 1021.9 -
29/04:30am 10.6 6.7 7.3 80 1.6 E 17 17 9 9 1022.3 1021.5 -
29/04:00am 11.0 7.2 7.7 80 1.6 E 17 20 9 11 1022.2 1021.4 -
29/03:30am 10.4 6.9 7.3 81 1.5 ESE 15 17 8 9 1022.3 1021.5 -
29/03:00am 10.7 8.0 7.2 79 1.7 ESE 11 13 6 7 1022.5 1021.7 0.0
29/02:30am 11.5 8.5 7.6 77 1.9 E 13 15 7 8 1022.5 1021.7 -
29/02:00am 11.7 9.1 7.6 76 2.0 E 11 13 6 7 1022.4 1021.6 -
29/01:30am 12.4 9.4 7.9 74 2.2 E 13 17 7 9 1022.6 1021.8 -
29/01:00am 13.2 9.2 8.3 72 2.5 E 19 24 10 13 1022.5 1021.7 -
29/12:30am 13.2 8.6 8.3 72 2.5 ESE 22 28 12 15 1022.7 1021.9 -
29/12:00am 13.6 9.0 8.2 70 2.7 ESE 22 30 12 16 1023.0 1022.2 -
 
Date/Time
EST
Temp
°C
App
Temp
°C
Dew
Point
°C
Rel
Hum
%
Delta-T
°C
Wind Press
QNH
hPa
Press
MSL
hPa
Rain since
9am
mm
Dir  Spd
km/h
Gust
km/h
Spd
kts
Gust
kts
28/11:30pm 13.9 9.4 8.5 70 2.8 E 22 30 12 16 1023.0 1022.2 -
28/11:00pm 14.2 9.7 8.6 69 2.9 E 22 28 12 15 1023.1 1022.3 -
28/10:30pm 14.5 9.3 8.7 68 3.0 ENE 26 33 14 18 1023.0 1022.2 -
28/10:00pm 15.0 9.3 8.5 65 3.3 ENE 28 37 15 20 1022.9 1022.1 -
28/09:30pm 15.4 9.9 7.7 60 3.9 ENE 26 35 14 19 1022.9 1022.1 -
28/09:00pm 16.1 9.3 7.1 55 4.5 E 32 43 17 23 1022.6 1021.8 -
28/08:30pm 16.9 10.4 6.7 51 5.1 ENE 30 41 16 22 1022.6 1021.8 -
28/08:00pm 17.7 11.8 5.6 45 6.0 ENE 26 33 14 18 1022.3 1021.5 -
28/07:30pm 18.0 11.9 0.6 31 7.8 E 22 28 12 15 1022.0 1021.2 -
28/07:00pm 18.6 13.0 0.2 29 8.2 ESE 19 24 10 13 1021.6 1020.8 -
28/06:30pm 19.0 14.8 -0.9 26 8.7 SE 11 15 6 8 1021.2 1020.4 -
28/06:00pm 19.6 14.9 -1.5 24 9.2 SE 13 15 7 8 1020.7 1019.9 -
28/05:30pm 22.7 18.8 -1.4 20 10.8 SE 9 11 5 6 1020.3 1019.5 -
28/05:00pm 23.5 20.0 -1.4 19 11.2 ESE 7 11 4 6 1020.1 1019.3 -
28/04:30pm 24.0 19.8 -1.0 19 11.4 ESE 11 17 6 9 1019.9 1019.1 -
28/04:00pm 24.1 20.2 -1.7 18 11.6 ENE 9 15 5 8 1019.7 1018.9 -
28/03:30pm 23.8 20.3 -1.2 19 11.3 SSE 7 11 4 6 1019.8 1019.0 0.0
28/03:00pm 23.5 19.5 -2.2 18 11.4 SW 9 15 5 8 1019.8 1019.0 0.0
28/02:30pm 22.7 19.5 -0.7 21 10.6 ENE 6 11 3 6 1020.0 1019.2 0.0
28/02:00pm 23.3 19.6 -0.2 21 10.8 SW 9 13 5 7 1020.5 1019.7 0.0
28/01:30pm 22.9 19.5 -0.6 21 10.7 SW 7 17 4 9 1021.1 1020.3 0.0
28/01:00pm 22.5 18.5 0.4 23 10.2 NNW 11 20 6 11 1021.5 1020.7 0.0

Other formats

Comma delimited format used in spreadsheet applications
http://www.bom.gov.au/fwo/IDQ60801/IDQ60801.94542.axf

JavaScript Object Notation format (JSON) in row-major order
http://www.bom.gov.au/fwo/IDQ60801/IDQ60801.94542.json

Data quality

Most of these data are generated automatically and are frequently updated. Quality checks on data are not normally performed. It is possible for incorrect values to appear. Refer to information at About Latest Weather Observations and please check the disclaimer before using these data.